createdAt,value
2018-04-17T00:02:05.415Z,99.90
2018-04-17T00:04:32.892Z,99.90
2018-04-17T00:07:01.128Z,99.90
2018-04-17T00:09:28.601Z,99.90
2018-04-17T00:11:56.069Z,99.90
2018-04-17T00:14:23.522Z,99.90
2018-04-17T00:16:50.979Z,99.90
2018-04-17T00:19:18.449Z,99.90
2018-04-17T00:21:45.889Z,99.90
2018-04-17T00:24:13.354Z,99.90
2018-04-17T00:26:40.832Z,99.90
2018-04-17T00:29:08.301Z,99.90
2018-04-17T00:31:36.543Z,99.90
2018-04-17T00:34:03.997Z,99.90
2018-04-17T00:36:31.481Z,99.90
2018-04-17T00:38:59.721Z,99.90
2018-04-17T00:41:27.170Z,99.90
2018-04-17T00:43:54.889Z,99.90
2018-04-17T00:46:23.117Z,99.90
2018-04-17T00:48:50.585Z,99.90
2018-04-17T00:51:18.023Z,99.90
2018-04-17T00:53:52.234Z,99.90
2018-04-17T00:56:19.703Z,99.90
2018-04-17T00:58:47.177Z,99.90
2018-04-17T01:01:14.636Z,99.90
2018-04-17T01:03:42.088Z,99.90
2018-04-17T01:06:09.546Z,99.90
2018-04-17T01:08:37.033Z,99.90
2018-04-17T01:11:05.268Z,99.90
2018-04-17T01:13:32.728Z,99.90
2018-04-17T01:16:00.205Z,99.90
2018-04-17T01:18:27.668Z,99.90
2018-04-17T01:20:55.132Z,99.90
2018-04-17T01:23:23.385Z,99.90
2018-04-17T01:25:50.821Z,99.90
2018-04-17T01:28:18.290Z,99.90
2018-04-17T01:30:45.757Z,99.90
2018-04-17T01:33:13.242Z,99.90
2018-04-17T01:35:41.465Z,99.90
2018-04-17T01:38:08.932Z,99.90
2018-04-17T01:40:36.395Z,99.90
2018-04-17T01:43:03.843Z,99.90
2018-04-17T01:45:31.309Z,99.90
2018-04-17T01:47:58.765Z,99.90
2018-04-17T01:50:26.214Z,99.90
2018-04-17T01:52:53.712Z,99.90
2018-04-17T01:55:21.965Z,99.90
2018-04-17T01:57:49.432Z,99.90
2018-04-17T02:00:16.871Z,99.90
2018-04-17T02:02:45.222Z,99.90
2018-04-17T02:05:12.700Z,99.90
2018-04-17T02:07:40.917Z,99.90
2018-04-17T02:10:09.126Z,99.90
2018-04-17T02:12:36.589Z,99.90
2018-04-17T02:15:04.798Z,99.90
2018-04-17T02:17:32.237Z,99.90
2018-04-17T02:19:59.688Z,99.90
2018-04-17T02:22:27.151Z,99.90
2018-04-17T02:24:54.608Z,99.90
2018-04-17T02:27:22.041Z,99.90
2018-04-17T02:29:49.526Z,99.90
2018-04-17T02:32:16.969Z,99.90
2018-04-17T02:34:44.408Z,99.90
2018-04-17T02:37:11.879Z,99.90
2018-04-17T02:39:39.335Z,99.90
2018-04-17T02:42:06.789Z,99.90
2018-04-17T02:44:35.021Z,99.90
2018-04-17T02:47:03.235Z,99.90
2018-04-17T02:49:30.705Z,99.90
2018-04-17T02:51:58.181Z,99.90
2018-04-17T02:54:25.639Z,99.90
2018-04-17T02:56:53.088Z,99.90
2018-04-17T02:59:20.584Z,99.90
2018-04-17T03:01:48.029Z,99.90
2018-04-17T03:04:16.260Z,99.90
2018-04-17T03:06:43.714Z,99.90
2018-04-17T03:09:11.162Z,99.90
2018-04-17T03:11:38.627Z,99.90
2018-04-17T03:14:06.077Z,99.90
2018-04-17T03:16:33.571Z,99.90
2018-04-17T03:19:01.044Z,99.90
2018-04-17T03:21:29.292Z,99.90
2018-04-17T03:23:59.191Z,99.90
2018-04-17T03:26:26.644Z,99.90
2018-04-17T03:28:54.100Z,99.90
2018-04-17T03:31:22.403Z,99.90
2018-04-17T03:33:49.851Z,99.90
2018-04-17T03:36:17.308Z,99.90
2018-04-17T03:38:44.786Z,99.90
2018-04-17T03:41:13.027Z,99.90
2018-04-17T03:43:40.487Z,99.90
2018-04-17T03:46:07.931Z,99.90
2018-04-17T03:48:35.394Z,99.90
2018-04-17T03:51:02.857Z,99.90
2018-04-17T03:53:30.331Z,99.90
2018-04-17T03:55:57.888Z,99.90
2018-04-17T03:58:25.369Z,99.90
2018-04-17T04:00:53.607Z,99.90
2018-04-17T04:03:21.079Z,99.90
2018-04-17T04:05:48.617Z,99.90
2018-04-17T04:08:16.161Z,99.90
2018-04-17T04:10:43.619Z,99.90
2018-04-17T04:13:11.093Z,99.90
2018-04-17T04:15:38.549Z,99.90
2018-04-17T04:18:17.855Z,99.90
2018-04-17T04:20:57.404Z,99.90
2018-04-17T04:23:36.884Z,99.90
2018-04-17T04:26:16.275Z,99.90
2018-04-17T04:28:43.723Z,99.90
2018-04-17T04:31:11.185Z,99.90
2018-04-17T04:33:38.733Z,99.90
2018-04-17T04:36:06.245Z,99.90
2018-04-17T04:38:33.775Z,99.90
2018-04-17T04:41:01.267Z,99.90
2018-04-17T04:43:28.735Z,99.90
2018-04-17T04:45:56.958Z,99.90
2018-04-17T04:48:24.426Z,99.90
2018-04-17T04:50:51.886Z,99.90
2018-04-17T04:53:19.345Z,99.90
2018-04-17T04:55:46.903Z,99.90
2018-04-17T04:58:14.359Z,99.90
2018-04-17T05:00:41.835Z,99.90
2018-04-17T05:03:09.291Z,99.90
2018-04-17T05:05:36.797Z,99.90
2018-04-17T05:08:04.238Z,99.90
2018-04-17T05:10:31.763Z,99.90
2018-04-17T05:12:59.323Z,99.90
2018-04-17T05:15:26.762Z,99.90
2018-04-17T05:17:54.240Z,99.90
2018-04-17T05:20:21.703Z,99.90
2018-04-17T05:22:49.157Z,99.90
2018-04-17T05:25:16.712Z,99.90
2018-04-17T05:27:44.219Z,99.90
2018-04-17T05:30:11.736Z,99.90
2018-04-17T05:32:39.977Z,99.90
2018-04-17T05:35:07.435Z,99.90
2018-04-17T05:37:34.874Z,99.90
2018-04-17T05:40:02.339Z,99.90
2018-04-17T05:42:29.785Z,99.90
2018-04-17T05:44:57.250Z,99.90
2018-04-17T05:47:24.684Z,99.90
2018-04-17T05:49:52.163Z,99.90
2018-04-17T05:52:19.690Z,99.90
2018-04-17T05:54:47.131Z,99.90
2018-04-17T05:57:15.407Z,99.90
2018-04-17T05:59:43.627Z,99.90
2018-04-17T06:02:11.110Z,99.90
2018-04-17T06:04:38.552Z,99.90
2018-04-17T06:07:06.016Z,99.90
2018-04-17T06:09:33.506Z,99.90
2018-04-17T06:12:01.744Z,99.90
2018-04-17T06:14:29.512Z,99.90
2018-04-17T06:16:57.466Z,99.90
2018-04-17T06:19:27.297Z,99.90
2018-04-17T06:21:54.784Z,99.90
2018-04-17T06:24:23.028Z,99.90
2018-04-17T06:26:50.498Z,99.90
2018-04-17T06:29:17.935Z,99.90
2018-04-17T06:31:45.495Z,99.90
2018-04-17T06:34:12.955Z,99.90
2018-04-17T06:36:40.420Z,99.90
2018-04-17T06:39:07.878Z,99.90
2018-04-17T06:41:36.149Z,99.90
2018-04-17T06:44:03.608Z,99.90
2018-04-17T06:46:31.085Z,99.90
2018-04-17T06:48:59.360Z,99.80
2018-04-17T06:51:27.587Z,99.40
2018-04-17T06:53:55.048Z,99.30
2018-04-17T06:56:22.492Z,98.70
2018-04-17T06:58:49.977Z,98.70
2018-04-17T07:01:17.447Z,98.30
2018-04-17T07:03:44.924Z,98.00
2018-04-17T07:06:13.189Z,96.80
2018-04-17T07:08:40.657Z,96.70
2018-04-17T07:11:08.095Z,96.60
2018-04-17T07:13:35.601Z,96.60
2018-04-17T07:16:03.076Z,95.70
2018-04-17T07:18:30.542Z,95.00
2018-04-17T07:20:58.011Z,95.10
2018-04-17T07:23:28.151Z,94.80
2018-04-17T07:25:55.801Z,94.70
2018-04-17T07:28:23.452Z,93.70
2018-04-17T07:30:50.922Z,93.00
2018-04-17T07:33:18.390Z,92.90
2018-04-17T07:35:45.841Z,91.90
2018-04-17T07:38:13.306Z,91.60
2018-04-17T07:40:41.532Z,91.50
2018-04-17T07:43:08.988Z,91.00
2018-04-17T07:45:36.427Z,90.50
2018-04-17T07:48:22.702Z,90.60
2018-04-17T07:50:50.911Z,89.40
2018-04-17T07:53:18.374Z,89.20
2018-04-17T07:55:45.851Z,87.40
2018-04-17T07:58:13.316Z,86.00
2018-04-17T08:00:40.767Z,84.40
2018-04-17T08:03:08.213Z,83.50
2018-04-17T08:05:36.553Z,82.50
2018-04-17T08:08:04.006Z,83.10
2018-04-17T08:10:31.581Z,79.50
2018-04-17T08:12:59.029Z,79.90
2018-04-17T08:15:26.488Z,78.00
2018-04-17T08:17:53.942Z,79.50
2018-04-17T08:20:21.420Z,76.60
2018-04-17T08:22:48.888Z,73.50
2018-04-17T08:25:16.359Z,74.20
2018-04-17T08:27:43.816Z,74.80
2018-04-17T08:30:11.268Z,73.10
2018-04-17T08:32:38.751Z,69.60
2018-04-17T08:35:06.955Z,67.90
2018-04-17T08:37:34.436Z,67.80
2018-04-17T08:40:01.899Z,69.40
2018-04-17T08:42:29.364Z,66.60
2018-04-17T08:44:56.813Z,69.20
2018-04-17T08:47:24.289Z,65.30
2018-04-17T08:49:51.742Z,64.00
2018-04-17T08:52:19.233Z,64.90
2018-04-17T08:54:47.453Z,62.40
2018-04-17T08:57:14.926Z,62.30
2018-04-17T08:59:42.505Z,63.90
2018-04-17T09:02:09.968Z,60.60
2018-04-17T09:04:38.376Z,64.00
2018-04-17T09:07:05.825Z,61.70
2018-04-17T09:09:34.048Z,57.10
2018-04-17T09:12:01.531Z,57.20
2018-04-17T09:14:28.955Z,56.10
2018-04-17T09:16:56.425Z,56.20
2018-04-17T09:19:23.892Z,55.60
2018-04-17T09:21:51.376Z,55.80
2018-04-17T09:24:19.581Z,56.20
2018-04-17T09:26:47.035Z,56.10
2018-04-17T09:29:14.475Z,55.20
2018-04-17T09:31:41.931Z,55.10
2018-04-17T09:34:09.403Z,54.10
2018-04-17T09:36:36.850Z,55.90
2018-04-17T09:39:07.169Z,54.40
2018-04-17T09:41:34.621Z,54.00
2018-04-17T09:44:02.095Z,53.00
2018-04-17T09:46:29.558Z,53.50
2018-04-17T09:48:57.003Z,52.10
2018-04-17T09:51:24.451Z,54.30
2018-04-17T09:53:51.904Z,52.40
2018-04-17T09:56:19.404Z,52.50
2018-04-17T09:58:46.854Z,52.40
2018-04-17T10:01:20.019Z,51.10
2018-04-17T10:03:48.622Z,51.50
2018-04-17T10:06:16.308Z,52.30
2018-04-17T10:11:34.241Z,50.50
2018-04-17T10:14:01.746Z,48.80
2018-04-17T10:19:20.913Z,48.70
2018-04-17T10:21:48.356Z,48.50
2018-04-17T10:24:15.803Z,45.20
2018-04-17T10:26:43.255Z,46.70
2018-04-17T10:29:10.731Z,49.50
2018-04-17T10:31:38.173Z,46.80
2018-04-17T10:34:05.630Z,45.40
2018-04-17T10:36:33.079Z,49.10
2018-04-17T10:39:01.300Z,46.40
2018-04-17T10:41:29.552Z,45.10
2018-04-17T10:43:56.999Z,45.10
2018-04-17T10:46:25.284Z,42.00
2018-04-17T10:48:52.697Z,41.90
2018-04-17T10:51:20.146Z,42.60
2018-04-17T10:53:47.612Z,39.40
2018-04-17T10:56:15.059Z,41.30
2018-04-17T10:58:43.432Z,42.10
2018-04-17T11:01:11.672Z,40.50
2018-04-17T11:03:39.155Z,40.30
2018-04-17T11:06:07.398Z,40.10
2018-04-17T11:08:34.845Z,40.10
2018-04-17T11:11:02.324Z,40.30
2018-04-17T11:13:29.807Z,40.40
2018-04-17T11:15:58.037Z,41.60
2018-04-17T11:18:25.491Z,42.20
2018-04-17T11:20:52.937Z,40.50
2018-04-17T11:23:20.416Z,41.60
2018-04-17T11:25:47.859Z,40.80
2018-04-17T11:28:15.350Z,41.70
2018-04-17T11:30:43.580Z,41.30
2018-04-17T11:33:11.026Z,41.30
2018-04-17T11:35:38.489Z,42.50
2018-04-17T11:38:06.763Z,39.80
2018-04-17T11:40:34.244Z,39.00
2018-04-17T11:43:01.765Z,37.00
2018-04-17T11:45:29.203Z,42.90
2018-04-17T11:47:56.668Z,41.10
2018-04-17T11:50:28.579Z,39.50
2018-04-17T11:52:56.065Z,39.50
2018-04-17T11:55:24.298Z,40.60
2018-04-17T11:57:51.758Z,40.60
2018-04-17T12:00:19.216Z,42.80
2018-04-17T12:02:46.673Z,42.40
2018-04-17T12:05:14.150Z,43.00
2018-04-17T12:07:41.614Z,43.20
2018-04-17T12:10:09.077Z,39.70
2018-04-17T12:12:37.335Z,39.10
2018-04-17T12:15:04.795Z,39.00
2018-04-17T12:17:32.495Z,39.50
2018-04-17T12:20:00.406Z,40.50
2018-04-17T12:22:27.980Z,40.60
2018-04-17T12:24:55.586Z,38.30
2018-04-17T12:27:23.111Z,40.50
2018-04-17T12:29:51.331Z,39.00
2018-04-17T12:32:18.814Z,38.20
2018-04-17T12:34:46.395Z,39.60
2018-04-17T12:37:13.902Z,37.60
2018-04-17T12:39:41.400Z,37.90
2018-04-17T12:42:09.070Z,37.60
2018-04-17T12:44:36.536Z,36.90
2018-04-17T12:47:03.974Z,36.90
2018-04-17T12:49:31.453Z,37.20
2018-04-17T12:51:59.676Z,36.90
2018-04-17T12:54:27.120Z,36.80
2018-04-17T12:56:54.583Z,37.20
2018-04-17T12:59:22.028Z,39.20
2018-04-17T13:01:49.505Z,35.80
2018-04-17T13:04:16.964Z,38.70
2018-04-17T13:06:44.431Z,38.90
2018-04-17T13:09:11.875Z,39.00
2018-04-17T13:11:39.336Z,37.50
2018-04-17T13:14:06.780Z,40.00
2018-04-17T13:16:34.231Z,39.70
2018-04-17T13:19:01.715Z,40.30
2018-04-17T13:21:29.170Z,38.00
2018-04-17T13:23:56.631Z,36.80
2018-04-17T13:26:24.078Z,37.60
2018-04-17T13:28:51.547Z,37.90
2018-04-17T13:31:19.035Z,38.70
2018-04-17T13:33:47.268Z,37.20
2018-04-17T13:36:15.058Z,37.30
2018-04-17T13:38:42.597Z,38.80
2018-04-17T13:41:10.067Z,41.70
2018-04-17T13:43:37.542Z,39.80
2018-04-17T13:46:05.833Z,41.90
2018-04-17T13:48:34.046Z,41.50
2018-04-17T13:51:01.502Z,41.40
2018-04-17T13:53:29.017Z,45.50
2018-04-17T13:55:57.281Z,44.40
2018-04-17T13:58:24.740Z,44.30
2018-04-17T14:00:52.193Z,42.60
2018-04-17T14:03:19.672Z,48.60
2018-04-17T14:05:47.938Z,45.90
2018-04-17T14:08:16.161Z,44.80
2018-04-17T14:10:43.635Z,44.80
2018-04-17T14:13:11.103Z,43.70
2018-04-17T14:15:39.396Z,46.10
2018-04-17T14:18:06.840Z,44.80
2018-04-17T14:20:34.368Z,44.80
2018-04-17T14:23:01.892Z,43.90
2018-04-17T14:25:29.435Z,45.60
2018-04-17T14:27:57.245Z,45.20
2018-04-17T14:30:25.591Z,46.60
2018-04-17T14:32:53.191Z,46.60
2018-04-17T14:35:20.723Z,49.00
2018-04-17T14:37:48.272Z,50.10
2018-04-17T14:40:15.854Z,48.20
2018-04-17T14:42:43.369Z,46.30
2018-04-17T14:45:11.663Z,46.50
2018-04-17T14:47:39.221Z,46.60
2018-04-17T14:50:06.762Z,48.70
2018-04-17T14:52:34.330Z,46.10
2018-04-17T14:55:01.848Z,46.40
2018-04-17T14:57:29.421Z,46.30
2018-04-17T14:59:57.733Z,51.90
2018-04-17T15:02:25.256Z,51.90
2018-04-17T15:04:52.807Z,47.70
2018-04-17T15:07:20.331Z,47.20
2018-04-17T15:09:48.470Z,46.80
2018-04-17T15:12:16.905Z,49.30
2018-04-17T15:14:44.576Z,49.30
2018-04-17T15:17:12.175Z,48.20
2018-04-17T15:19:39.773Z,49.50
2018-04-17T15:22:07.370Z,46.20
2018-04-17T15:24:34.940Z,49.30
2018-04-17T15:27:02.805Z,49.70
2018-04-17T15:29:30.494Z,47.20
2018-04-17T15:31:57.971Z,47.00
2018-04-17T15:34:25.873Z,48.10
2018-04-17T15:36:53.790Z,49.30
2018-04-17T15:39:21.755Z,47.80
2018-04-17T15:41:49.525Z,47.70
2018-04-17T15:44:17.016Z,47.80
2018-04-17T15:46:44.490Z,45.70
2018-04-17T15:49:11.971Z,49.80
2018-04-17T15:51:40.194Z,47.80
2018-04-17T15:54:07.670Z,47.80
2018-04-17T15:56:35.160Z,49.90
2018-04-17T15:59:03.369Z,47.90
2018-04-17T16:01:30.811Z,47.90
2018-04-17T16:03:58.310Z,48.60
2018-04-17T16:06:26.726Z,49.70
2018-04-17T16:08:54.159Z,49.20
2018-04-17T16:11:21.640Z,48.40
2018-04-17T16:13:49.869Z,49.30
2018-04-17T16:16:17.339Z,49.10
2018-04-17T16:18:44.820Z,49.80
2018-04-17T16:21:12.297Z,49.40
2018-04-17T16:23:40.551Z,48.20
2018-04-17T16:26:08.019Z,48.20
2018-04-17T16:28:36.266Z,49.90
2018-04-17T16:31:03.714Z,49.90
2018-04-17T16:33:31.183Z,48.80
2018-04-17T16:35:58.736Z,48.70
2018-04-17T16:38:26.311Z,49.10
2018-04-17T16:40:53.763Z,49.20
2018-04-17T16:43:21.975Z,48.60
2018-04-17T16:45:49.432Z,48.50
2018-04-17T16:48:16.875Z,47.30
2018-04-17T16:50:45.091Z,47.90
2018-04-17T16:53:12.535Z,47.90
2018-04-17T16:55:40.004Z,47.80
2018-04-17T16:58:07.511Z,47.20
2018-04-17T17:00:34.974Z,47.30
2018-04-17T17:03:03.190Z,47.60
2018-04-17T17:05:30.637Z,47.60
2018-04-17T17:07:58.093Z,48.00
2018-04-17T17:10:25.533Z,47.10
2018-04-17T17:12:52.975Z,45.90
2018-04-17T17:15:21.230Z,46.10
2018-04-17T17:17:48.689Z,46.10
2018-04-17T17:20:16.153Z,46.10
2018-04-17T17:22:43.628Z,47.30
2018-04-17T17:25:11.832Z,48.50
2018-04-17T17:27:39.284Z,48.40
2018-04-17T17:30:06.746Z,48.70
2018-04-17T17:32:34.207Z,48.30
2018-04-17T17:35:01.662Z,47.60
2018-04-17T17:37:29.111Z,47.10
2018-04-17T17:39:56.557Z,50.80
2018-04-17T17:42:24.024Z,47.50
2018-04-17T17:44:51.496Z,48.00
2018-04-17T17:47:19.693Z,48.10
2018-04-17T17:49:47.409Z,48.00
2018-04-17T17:52:14.867Z,49.20
2018-04-17T17:54:42.339Z,49.50
2018-04-17T17:57:09.790Z,52.80
2018-04-17T17:59:37.257Z,53.90
2018-04-17T18:02:04.771Z,53.70
2018-04-17T18:04:33.032Z,54.60
2018-04-17T18:07:00.521Z,54.50
2018-04-17T18:09:27.916Z,57.60
2018-04-17T18:11:55.371Z,56.00
2018-04-17T18:14:22.847Z,59.10
2018-04-17T18:16:50.339Z,62.10
2018-04-17T18:19:18.573Z,60.80
2018-04-17T18:21:46.029Z,60.80
2018-04-17T18:24:13.511Z,62.30
2018-04-17T18:26:41.740Z,64.60
2018-04-17T18:29:09.250Z,64.60
2018-04-17T18:31:36.731Z,64.10
2018-04-17T18:34:04.202Z,61.00
2018-04-17T18:36:31.637Z,59.10
2018-04-17T18:38:59.113Z,65.80
2018-04-17T18:41:26.568Z,65.50
2018-04-17T18:43:54.010Z,65.00
2018-04-17T18:46:21.623Z,63.60
2018-04-17T18:48:49.892Z,66.60
2018-04-17T18:51:17.632Z,66.60
2018-04-17T18:53:45.096Z,67.30
2018-04-17T18:56:12.770Z,68.80
2018-04-17T18:58:40.203Z,68.20
2018-04-17T19:01:07.881Z,67.30
2018-04-17T19:03:35.525Z,67.60
2018-04-17T19:06:02.985Z,70.40
2018-04-17T19:08:30.436Z,71.10
2018-04-17T19:10:58.040Z,70.60
2018-04-17T19:13:25.521Z,74.50
2018-04-17T19:15:53.763Z,75.90
2018-04-17T19:18:21.591Z,75.80
2018-04-17T19:20:49.133Z,74.70
2018-04-17T19:23:16.673Z,74.70
2018-04-17T19:25:44.166Z,76.10
2018-04-17T19:28:11.628Z,70.70
2018-04-17T19:30:39.093Z,76.50
2018-04-17T19:33:06.579Z,78.30
2018-04-17T19:35:34.023Z,78.40
2018-04-17T19:38:01.503Z,78.70
2018-04-17T19:40:29.068Z,75.80
2018-04-17T19:42:56.543Z,74.90
2018-04-17T19:45:24.799Z,76.40
2018-04-17T19:47:52.277Z,76.40
2018-04-17T19:50:20.487Z,79.70
2018-04-17T19:52:47.957Z,79.60
2018-04-17T19:55:15.525Z,80.10
2018-04-17T19:57:43.058Z,75.30
2018-04-17T20:00:10.528Z,79.70
2018-04-17T20:02:38.028Z,78.20
2018-04-17T20:05:05.454Z,78.60
2018-04-17T20:07:32.947Z,81.00
2018-04-17T20:10:01.930Z,79.50
2018-04-17T20:12:29.730Z,79.10
2018-04-17T20:14:57.386Z,79.30
2018-04-17T20:17:25.525Z,82.10
2018-04-17T20:19:53.426Z,85.30
2018-04-17T20:22:21.115Z,85.30
2018-04-17T20:24:48.902Z,80.70
2018-04-17T20:27:16.759Z,85.50
2018-04-17T20:29:44.461Z,86.50
2018-04-17T20:32:11.964Z,84.90
2018-04-17T20:34:39.426Z,82.90
2018-04-17T20:37:06.909Z,81.20
2018-04-17T20:39:34.385Z,80.90
2018-04-17T20:42:02.602Z,84.60
2018-04-17T20:44:30.055Z,84.60
2018-04-17T20:46:57.504Z,83.60
2018-04-17T20:49:24.983Z,83.10
2018-04-17T20:51:52.443Z,86.60
2018-04-17T20:54:19.922Z,88.00
2018-04-17T20:56:47.363Z,88.00
2018-04-17T20:59:14.847Z,85.70
2018-04-17T21:01:42.327Z,86.80
2018-04-17T21:04:10.564Z,87.20
2018-04-17T21:06:38.027Z,87.20
2018-04-17T21:09:06.341Z,88.00
2018-04-17T21:11:33.822Z,87.30
2018-04-17T21:14:01.272Z,87.60
2018-04-17T21:16:28.757Z,86.90
2018-04-17T21:18:56.194Z,86.90
2018-04-17T21:21:23.671Z,86.80
2018-04-17T21:23:51.158Z,86.90
2018-04-17T21:26:19.391Z,86.90
2018-04-17T21:28:46.830Z,86.90
2018-04-17T21:31:14.318Z,87.50
2018-04-17T21:33:41.801Z,88.00
2018-04-17T21:36:09.283Z,88.50
2018-04-17T21:38:36.733Z,89.00
2018-04-17T21:41:04.963Z,90.10
2018-04-17T21:43:32.398Z,89.40
2018-04-17T21:45:59.870Z,89.70
2018-04-17T21:48:27.341Z,90.00
2018-04-17T21:50:54.839Z,90.00
2018-04-17T21:53:22.279Z,90.00
2018-04-17T21:55:50.493Z,90.10
2018-04-17T21:58:17.958Z,90.10
2018-04-17T22:00:45.433Z,90.20
2018-04-17T22:03:12.904Z,90.60
2018-04-17T22:05:40.381Z,90.90
2018-04-17T22:08:08.601Z,90.80
2018-04-17T22:10:36.061Z,90.80
2018-04-17T22:13:04.428Z,91.10
2018-04-17T22:15:31.894Z,91.00
2018-04-17T22:17:59.401Z,91.50
2018-04-17T22:20:26.862Z,91.90
2018-04-17T22:22:54.288Z,91.90
2018-04-17T22:25:21.749Z,92.80
2018-04-17T22:27:49.218Z,92.50
2018-04-17T22:30:16.675Z,92.40
2018-04-17T22:32:44.149Z,92.40
2018-04-17T22:35:12.380Z,92.40
2018-04-17T22:37:39.853Z,92.40
2018-04-17T22:40:07.328Z,93.10
2018-04-17T22:42:34.780Z,92.70
2018-04-17T22:45:02.236Z,92.30
2018-04-17T22:47:29.680Z,92.30
2018-04-17T22:49:57.122Z,92.20
2018-04-17T22:52:24.605Z,92.00
2018-04-17T22:54:52.043Z,92.30
2018-04-17T22:57:19.490Z,92.70
2018-04-17T22:59:46.956Z,93.10
2018-04-17T23:02:14.428Z,93.30
2018-04-17T23:04:41.897Z,93.50
2018-04-17T23:07:09.378Z,93.00
2018-04-17T23:09:37.601Z,92.80
2018-04-17T23:12:05.068Z,92.70
2018-04-17T23:14:32.559Z,92.60
2018-04-17T23:16:59.982Z,93.00
2018-04-17T23:19:27.415Z,93.20
2018-04-17T23:21:54.890Z,92.80
2018-04-17T23:24:22.336Z,93.00
2018-04-17T23:26:49.830Z,93.10
2018-04-17T23:29:18.042Z,93.50
2018-04-17T23:31:45.510Z,93.40
2018-04-17T23:34:12.960Z,93.70
2018-04-17T23:36:40.402Z,94.00
2018-04-17T23:39:07.885Z,94.20
2018-04-17T23:41:35.329Z,94.20
2018-04-17T23:44:02.843Z,94.20
2018-04-17T23:46:30.277Z,94.50
2018-04-17T23:48:57.753Z,94.60
2018-04-17T23:51:25.199Z,94.40
2018-04-17T23:53:52.674Z,94.50
2018-04-17T23:56:20.896Z,94.50
2018-04-17T23:58:48.364Z,94.50
